Time;durP1;ratioP1;P1;durP2;ratioP2;P2;SDS_P1;SDS_P2;PMS_P1;PMS_P2;Temp;Humidity;BMP_temperature;BMP_pressure;BME280_temperature;BME280_humidity;BME280_pressure;Samples;Min_cycle;Max_cycle;Signal;HPM_P1;HPM_P2
2023/07/04 00:01:04;;;;;;;3.90;2.97;;;20.40;99.90;;;;;;5024747;28;20423;-67
2023/07/04 00:03:31;;;;;;;5.00;3.03;;;20.40;99.90;;;;;;5019522;28;20478;-67
2023/07/04 00:05:57;;;;;;;3.80;2.73;;;20.30;99.90;;;;;;5024936;28;20419;-67
2023/07/04 00:08:25;;;;;;;4.03;3.07;;;20.40;99.90;;;;;;5020302;28;20806;-67
2023/07/04 00:10:51;;;;;;;4.67;2.63;;;20.50;99.90;;;;;;5027483;28;20411;-67
2023/07/04 00:13:19;;;;;;;7.17;3.03;;;20.40;99.90;;;;;;5025981;28;20485;-68
2023/07/04 00:15:49;;;;;;;4.00;2.80;;;20.40;99.90;;;;;;5016806;28;20435;-67
2023/07/04 00:18:20;;;;;;;3.40;2.63;;;20.50;99.90;;;;;;5012910;28;20483;-67
2023/07/04 00:20:45;;;;;;;3.80;2.40;;;20.40;99.90;;;;;;5019308;28;20439;-67
2023/07/04 00:23:11;;;;;;;3.73;2.60;;;20.40;99.90;;;;;;5023121;28;20434;-67
2023/07/04 00:25:36;;;;;;;5.50;2.50;;;20.40;99.90;;;;;;5024218;28;20188;-67
2023/07/04 00:28:05;;;;;;;4.07;2.80;;;20.30;99.90;;;;;;5018028;28;20267;-67
2023/07/04 00:30:33;;;;;;;4.10;2.63;;;20.40;99.90;;;;;;5017191;28;20692;-67
2023/07/04 00:32:59;;;;;;;3.90;3.10;;;20.40;99.90;;;;;;5022041;28;20460;-67
2023/07/04 00:35:25;;;;;;;5.10;2.70;;;20.40;99.90;;;;;;5027611;28;20505;-67
2023/07/04 00:37:51;;;;;;;4.57;2.93;;;20.40;99.90;;;;;;5024807;28;20192;-67
2023/07/04 00:40:16;;;;;;;4.00;2.83;;;20.30;99.90;;;;;;5017730;28;20508;-67
2023/07/04 00:42:45;;;;;;;3.13;2.80;;;20.30;99.90;;;;;;5010430;28;20192;-67
2023/07/04 00:45:19;;;;;;;3.50;2.80;;;20.30;99.90;;;;;;5021210;28;20180;-71
2023/07/04 00:47:53;;;;;;;3.33;2.73;;;20.30;99.90;;;;;;5021484;28;20470;-67
2023/07/04 00:50:26;;;;;;;3.73;2.80;;;20.30;99.90;;;;;;5021337;28;20899;-67
2023/07/04 00:52:56;;;;;;;3.43;2.50;;;20.20;99.90;;;;;;5018324;28;20497;-67
2023/07/04 00:55:22;;;;;;;2.80;2.40;;;20.20;99.90;;;;;;5027126;28;20521;-67
2023/07/04 00:57:47;;;;;;;3.63;2.57;;;20.30;99.90;;;;;;5022092;28;20919;-67
2023/07/04 01:00:24;;;;;;;3.67;2.70;;;20.20;99.90;;;;;;5021206;28;20431;-67
2023/07/04 01:02:54;;;;;;;3.63;2.83;;;20.30;99.90;;;;;;5022438;28;20231;-67
2023/07/04 01:05:26;;;;;;;3.13;2.00;;;20.30;99.90;;;;;;5021330;28;20418;-67
2023/07/04 01:08:00;;;;;;;3.20;2.00;;;20.30;99.90;;;;;;5021467;28;20824;-67
2023/07/04 01:10:40;;;;;;;5.50;2.97;;;20.30;99.90;;;;;;5021949;28;20418;-67
2023/07/04 01:13:35;;;;;;;5.83;2.70;;;20.20;99.90;;;;;;5022917;28;20968;-67
2023/07/04 01:16:02;;;;;;;4.83;3.33;;;20.20;99.90;;;;;;5022669;28;20430;-67
2023/07/04 01:18:28;;;;;;;3.47;2.50;;;20.20;99.90;;;;;;5020339;28;20554;-67
2023/07/04 01:20:55;;;;;;;5.60;2.47;;;20.10;99.90;;;;;;5023878;28;20435;-67
2023/07/04 01:23:38;;;;;;;4.00;2.60;;;20.10;99.90;;;;;;5027308;28;20180;-67
2023/07/04 01:26:30;;;;;;;3.20;2.57;;;20.20;99.90;;;;;;5018656;28;20435;-67
2023/07/04 01:28:56;;;;;;;3.50;2.40;;;20.20;99.90;;;;;;5020450;28;20466;-67
2023/07/04 01:31:25;;;;;;;3.77;2.60;;;20.20;99.90;;;;;;5017297;28;20471;-67
2023/07/04 01:33:51;;;;;;;2.80;2.27;;;20.20;99.90;;;;;;5024148;28;20520;-67
2023/07/04 01:36:22;;;;;;;3.00;2.43;;;20.20;99.90;;;;;;5021590;28;20419;-67
2023/07/04 01:38:48;;;;;;;4.33;2.83;;;20.10;99.90;;;;;;5022772;28;20879;-67
2023/07/04 01:41:15;;;;;;;3.10;2.63;;;20.10;99.90;;;;;;5023368;28;20451;-67
2023/07/04 01:43:41;;;;;;;3.43;2.63;;;20.10;99.90;;;;;;5018640;28;20445;-67
2023/07/04 01:46:07;;;;;;;3.13;2.40;;;20.10;99.90;;;;;;5023194;28;20426;-67
2023/07/04 01:48:32;;;;;;;3.37;2.30;;;20.10;99.90;;;;;;5022777;28;20526;-67
2023/07/04 01:50:58;;;;;;;2.57;1.80;;;20.10;99.90;;;;;;5016179;28;20196;-67
2023/07/04 01:53:23;;;;;;;3.80;3.00;;;20.00;99.90;;;;;;5024004;28;20216;-67
2023/07/04 01:55:49;;;;;;;3.50;2.33;;;20.00;99.90;;;;;;5023124;28;20676;-66
2023/07/04 01:58:14;;;;;;;4.37;2.70;;;20.00;99.90;;;;;;5025162;28;20201;-68
2023/07/04 02:00:41;;;;;;;4.63;2.67;;;20.10;99.90;;;;;;5015098;28;20193;-67
2023/07/04 02:03:07;;;;;;;2.97;2.40;;;20.20;99.90;;;;;;5024304;28;20188;-67
2023/07/04 02:05:32;;;;;;;5.27;2.80;;;20.20;99.90;;;;;;5020001;28;20807;-67
2023/07/04 02:07:58;;;;;;;3.50;2.90;;;20.20;99.90;;;;;;5016763;28;20204;-67
2023/07/04 02:10:24;;;;;;;3.03;2.33;;;20.30;99.90;;;;;;5022940;28;20177;-67
2023/07/04 02:12:50;;;;;;;3.30;2.63;;;20.20;99.90;;;;;;5016595;28;20236;-67
2023/07/04 02:15:15;;;;;;;3.20;2.40;;;20.20;99.90;;;;;;5019238;28;20195;-67
2023/07/04 02:17:41;;;;;;;3.57;2.40;;;20.10;99.90;;;;;;5028765;28;20215;-67
2023/07/04 02:20:07;;;;;;;3.10;2.23;;;20.20;99.90;;;;;;5020892;28;20184;-67
2023/07/04 02:22:33;;;;;;;5.00;2.40;;;20.10;99.90;;;;;;5012509;28;20173;-67
2023/07/04 02:24:59;;;;;;;2.40;2.10;;;20.10;99.90;;;;;;5019072;28;20468;-67
2023/07/04 02:27:24;;;;;;;3.03;2.60;;;20.10;99.90;;;;;;5026574;28;20443;-67
2023/07/04 02:29:50;;;;;;;3.30;2.50;;;20.10;99.90;;;;;;5019107;28;20200;-67
2023/07/04 02:32:16;;;;;;;2.93;2.13;;;20.10;99.90;;;;;;5018448;28;20181;-67
2023/07/04 02:34:42;;;;;;;4.30;2.37;;;20.10;99.90;;;;;;5021061;28;20218;-67
2023/07/04 02:37:08;;;;;;;3.07;2.20;;;20.10;99.90;;;;;;5018743;28;20432;-67
2023/07/04 02:39:33;;;;;;;3.27;2.30;;;20.10;99.90;;;;;;5026743;28;20196;-67
2023/07/04 02:41:59;;;;;;;3.10;2.17;;;20.10;99.90;;;;;;5019388;28;20186;-67
2023/07/04 02:44:25;;;;;;;3.60;2.60;;;20.00;99.90;;;;;;5022256;28;21219;-67
2023/07/04 02:46:51;;;;;;;3.20;2.50;;;20.00;99.90;;;;;;5016900;28;20323;-67
2023/07/04 02:49:16;;;;;;;5.17;4.30;;;20.00;99.90;;;;;;5018440;28;20904;-67
2023/07/04 02:51:42;;;;;;;6.03;3.13;;;20.00;99.90;;;;;;5024476;28;20587;-67
2023/07/04 02:54:08;;;;;;;3.10;2.10;;;20.00;99.90;;;;;;5022168;28;20255;-67
2023/07/04 02:56:33;;;;;;;2.43;2.23;;;20.00;99.90;;;;;;5018153;28;20200;-67
2023/07/04 02:58:59;;;;;;;4.20;2.70;;;20.00;99.90;;;;;;5017524;28;20282;-67
2023/07/04 03:01:25;;;;;;;4.83;2.77;;;20.00;99.90;;;;;;5023998;28;20655;-67
2023/07/04 03:03:50;;;;;;;3.83;2.40;;;19.80;99.90;;;;;;5014461;28;20259;-67
2023/07/04 03:06:16;;;;;;;3.83;2.80;;;19.90;99.90;;;;;;5021507;28;20261;-66
2023/07/04 03:08:44;;;;;;;6.37;2.40;;;19.90;99.90;;;;;;5013796;28;20208;-66
2023/07/04 03:11:10;;;;;;;3.90;2.70;;;19.80;99.90;;;;;;5023972;28;20820;-66
2023/07/04 03:13:36;;;;;;;4.43;2.53;;;19.80;99.90;;;;;;5025948;28;20456;-66
2023/07/04 03:16:02;;;;;;;4.00;2.53;;;19.70;99.90;;;;;;5024481;28;20445;-66
2023/07/04 03:18:27;;;;;;;3.77;2.93;;;19.70;99.90;;;;;;5019249;28;20205;-66
2023/07/04 03:20:53;;;;;;;4.43;2.90;;;19.60;99.90;;;;;;5024873;28;20246;-66
2023/07/04 03:23:19;;;;;;;3.33;2.57;;;19.60;99.90;;;;;;5021754;28;20234;-66
2023/07/04 03:25:44;;;;;;;3.03;2.67;;;19.70;99.90;;;;;;5017590;28;20281;-66
2023/07/04 03:28:10;;;;;;;3.70;2.87;;;19.70;99.90;;;;;;5023815;28;20204;-66
2023/07/04 03:30:35;;;;;;;4.67;2.93;;;19.70;99.90;;;;;;5022327;28;20239;-66
2023/07/04 03:33:01;;;;;;;6.00;3.00;;;19.60;99.90;;;;;;5010364;28;20196;-66
2023/07/04 03:35:27;;;;;;;4.00;2.87;;;19.60;99.90;;;;;;5016594;28;20193;-66
2023/07/04 03:37:52;;;;;;;4.20;2.87;;;19.50;99.90;;;;;;5022720;28;20254;-66
2023/07/04 03:40:18;;;;;;;3.93;3.00;;;19.40;99.90;;;;;;5019638;28;20271;-66
2023/07/04 03:42:44;;;;;;;5.37;3.13;;;19.40;99.90;;;;;;5022384;28;20215;-66
2023/07/04 03:45:10;;;;;;;8.17;3.20;;;19.30;99.90;;;;;;5015324;28;20176;-66
2023/07/04 03:47:36;;;;;;;5.20;2.93;;;19.40;99.90;;;;;;5016721;28;20208;-66
2023/07/04 03:50:02;;;;;;;4.10;3.00;;;19.50;99.90;;;;;;5015093;28;20470;-66
2023/07/04 03:52:28;;;;;;;4.03;3.20;;;19.50;99.90;;;;;;5017257;28;20189;-66
2023/07/04 03:54:53;;;;;;;4.27;3.00;;;19.50;99.90;;;;;;5019776;28;20589;-66
2023/07/04 03:57:19;;;;;;;3.90;2.90;;;19.60;99.90;;;;;;5013725;28;20459;-66
2023/07/04 03:59:45;;;;;;;3.57;2.80;;;19.50;99.90;;;;;;5017827;28;20201;-66
2023/07/04 04:02:11;;;;;;;3.53;2.73;;;19.50;99.90;;;;;;5017198;28;20230;-66
2023/07/04 04:04:39;;;;;;;5.80;3.40;;;19.40;99.90;;;;;;5038966;28;20184;-66
2023/07/04 04:07:09;;;;;;;4.30;3.50;;;19.20;99.90;;;;;;5016491;28;20206;-66
2023/07/04 04:09:36;;;;;;;3.90;3.30;;;19.10;99.90;;;;;;5016337;28;20452;-66
2023/07/04 04:12:02;;;;;;;4.80;3.30;;;19.00;99.90;;;;;;5017862;28;20585;-66
2023/07/04 04:14:31;;;;;;;4.50;3.53;;;18.90;99.90;;;;;;5021751;28;20545;-66
2023/07/04 04:16:57;;;;;;;4.63;3.83;;;18.90;99.90;;;;;;5017589;28;20913;-67
2023/07/04 04:19:24;;;;;;;4.37;3.07;;;18.90;99.90;;;;;;5013490;28;20738;-67
2023/07/04 04:21:51;;;;;;;5.07;3.30;;;18.90;99.90;;;;;;5021610;28;20765;-67
2023/07/04 04:24:17;;;;;;;4.70;3.50;;;18.90;99.90;;;;;;5022228;28;20743;-67
2023/07/04 04:26:43;;;;;;;5.67;3.50;;;18.90;99.90;;;;;;5022023;28;20473;-67
2023/07/04 04:29:09;;;;;;;6.00;3.20;;;18.90;99.90;;;;;;5016557;28;20716;-67
2023/07/04 04:31:37;;;;;;;4.73;3.70;;;18.80;99.90;;;;;;5020068;28;20251;-67
2023/07/04 04:34:04;;;;;;;5.40;3.70;;;18.80;99.90;;;;;;5018344;28;20256;-67
2023/07/04 04:36:30;;;;;;;6.47;3.83;;;18.80;99.90;;;;;;5016706;28;20435;-67
2023/07/04 04:38:56;;;;;;;5.83;3.17;;;18.90;99.90;;;;;;5024752;28;20431;-67
2023/07/04 04:41:21;;;;;;;5.00;3.57;;;18.90;99.90;;;;;;5016944;28;20283;-67
2023/07/04 04:43:49;;;;;;;6.70;3.20;;;18.80;99.90;;;;;;5018701;28;20705;-67
2023/07/04 04:46:16;;;;;;;5.17;3.87;;;18.60;99.90;;;;;;5020627;28;20727;-67
2023/07/04 04:48:41;;;;;;;6.57;3.50;;;18.70;99.90;;;;;;5021095;28;20526;-67
2023/07/04 04:51:15;;;;;;;5.20;3.53;;;18.70;99.90;;;;;;5018982;28;20531;-67
2023/07/04 04:53:44;;;;;;;4.33;3.70;;;18.70;99.90;;;;;;5023346;28;20279;-67
2023/07/04 04:56:11;;;;;;;6.43;3.90;;;18.70;99.90;;;;;;5021171;28;20427;-67
2023/07/04 04:58:36;;;;;;;4.10;2.87;;;18.70;99.90;;;;;;5017685;28;20467;-67
2023/07/04 05:01:12;;;;;;;6.73;3.77;;;18.80;99.90;;;;;;5018816;28;20435;-67
2023/07/04 05:03:37;;;;;;;4.10;3.40;;;18.90;99.90;;;;;;5020038;28;20183;-67
2023/07/04 05:06:04;;;;;;;4.87;3.80;;;18.90;99.90;;;;;;5023832;28;20411;-68
2023/07/04 05:08:30;;;;;;;6.60;4.17;;;18.90;99.90;;;;;;5021739;28;20609;-67
2023/07/04 05:11:01;;;;;;;5.80;3.80;;;18.90;99.90;;;;;;5022006;28;20415;-67
2023/07/04 05:13:27;;;;;;;5.63;4.20;;;19.00;99.90;;;;;;5021561;28;20213;-67
2023/07/04 05:16:07;;;;;;;6.83;3.87;;;18.90;99.90;;;;;;5024125;28;20433;-67
2023/07/04 05:18:35;;;;;;;5.30;3.60;;;19.00;99.90;;;;;;5020095;28;20204;-67
2023/07/04 05:21:07;;;;;;;8.53;4.63;;;19.00;99.90;;;;;;5022555;28;20478;-67
2023/07/04 05:23:35;;;;;;;5.40;4.27;;;19.00;99.90;;;;;;5024960;28;20419;-67
2023/07/04 05:26:11;;;;;;;8.43;3.93;;;19.10;99.90;;;;;;5017877;28;20788;-67
2023/07/04 05:28:37;;;;;;;6.87;3.87;;;19.20;99.90;;;;;;5020603;28;20530;-67
2023/07/04 05:31:06;;;;;;;7.13;4.73;;;19.30;99.90;;;;;;5021511;28;20429;-67
2023/07/04 05:33:34;;;;;;;6.67;4.07;;;19.30;99.90;;;;;;5021502;28;20459;-67
2023/07/04 05:36:19;;;;;;;6.10;4.80;;;19.30;99.90;;;;;;5020153;28;20507;-67
2023/07/04 05:38:49;;;;;;;5.30;3.90;;;19.40;99.90;;;;;;5021444;28;20521;-67
2023/07/04 05:41:17;;;;;;;6.90;4.50;;;19.50;99.90;;;;;;5021858;28;20804;-67
2023/07/04 05:43:43;;;;;;;5.70;4.10;;;19.50;99.90;;;;;;5025996;28;20434;-67
2023/07/04 05:46:10;;;;;;;7.67;3.90;;;19.60;99.90;;;;;;5019975;28;20802;-67
2023/07/04 05:48:37;;;;;;;5.90;3.70;;;19.70;99.90;;;;;;5021942;28;20470;-67
2023/07/04 05:51:05;;;;;;;6.70;3.93;;;19.70;99.90;;;;;;5020978;28;20419;-67
2023/07/04 05:53:33;;;;;;;7.10;3.90;;;19.80;99.90;;;;;;5022202;28;20475;-67
2023/07/04 05:56:12;;;;;;;6.27;3.97;;;19.80;99.90;;;;;;5023973;28;20508;-67
2023/07/04 05:58:41;;;;;;;6.83;4.33;;;19.80;99.90;;;;;;5025457;28;20509;-67
2023/07/04 06:01:12;;;;;;;4.90;3.10;;;19.70;99.90;;;;;;5020815;28;20466;-67
2023/07/04 06:03:38;;;;;;;7.33;4.23;;;19.60;99.90;;;;;;5014889;28;20917;-67
2023/07/04 06:06:16;;;;;;;6.80;3.83;;;19.70;99.90;;;;;;5020891;28;20422;-67
2023/07/04 06:08:42;;;;;;;5.00;3.93;;;19.70;99.90;;;;;;5015423;28;20462;-67
2023/07/04 06:11:08;;;;;;;6.53;3.97;;;19.70;99.90;;;;;;5016835;28;20427;-67
2023/07/04 06:13:33;;;;;;;4.10;3.50;;;19.80;99.90;;;;;;5024593;28;20211;-67
2023/07/04 06:16:01;;;;;;;6.30;3.90;;;19.80;99.90;;;;;;5018059;28;20181;-67
2023/07/04 06:18:27;;;;;;;8.60;4.90;;;20.00;99.90;;;;;;5022306;28;20631;-67
2023/07/04 06:20:52;;;;;;;5.10;3.37;;;20.10;99.90;;;;;;5024595;28;20437;-67
2023/07/04 06:23:23;;;;;;;6.90;4.90;;;20.10;99.90;;;;;;5024590;28;20191;-67
2023/07/04 06:25:58;;;;;;;5.37;3.73;;;20.00;99.90;;;;;;5017876;28;20209;-67
2023/07/04 06:28:23;;;;;;;4.70;3.50;;;20.10;99.90;;;;;;5022871;28;20453;-67
2023/07/04 06:30:49;;;;;;;11.03;5.13;;;20.00;99.90;;;;;;5016384;28;20426;-67
2023/07/04 06:33:15;;;;;;;7.53;4.57;;;20.00;99.90;;;;;;5017985;28;20218;-67
2023/07/04 06:35:41;;;;;;;7.90;5.20;;;20.00;99.90;;;;;;5021698;28;20180;-67
2023/07/04 06:38:10;;;;;;;5.20;3.77;;;20.10;99.90;;;;;;5020365;28;20200;-67
2023/07/04 06:40:36;;;;;;;9.10;4.77;;;20.20;99.90;;;;;;5016486;28;20438;-67
2023/07/04 06:43:03;;;;;;;5.50;3.73;;;20.20;99.90;;;;;;5018319;28;20448;-67
2023/07/04 06:45:31;;;;;;;7.07;3.90;;;20.30;99.90;;;;;;5019955;28;20431;-67
2023/07/04 06:47:57;;;;;;;8.07;4.03;;;20.40;99.90;;;;;;5020857;28;20427;-67
2023/07/04 06:50:22;;;;;;;7.67;4.33;;;20.30;99.90;;;;;;5018536;28;20416;-67
2023/07/04 06:52:48;;;;;;;7.70;4.00;;;20.40;99.90;;;;;;5021245;28;20231;-67
2023/07/04 06:55:13;;;;;;;6.43;4.10;;;20.40;99.90;;;;;;5020477;28;20172;-67
2023/07/04 06:57:39;;;;;;;11.77;4.20;;;20.40;99.90;;;;;;5022623;28;20188;-68
2023/07/04 07:00:05;;;;;;;10.37;4.40;;;20.40;99.90;;;;;;5020641;28;20561;-67
2023/07/04 07:02:32;;;;;;;6.57;4.37;;;20.60;99.90;;;;;;5019794;28;20584;-67
2023/07/04 07:04:57;;;;;;;5.57;4.00;;;20.60;99.90;;;;;;5020300;28;20547;-67
2023/07/04 07:07:23;;;;;;;8.20;4.10;;;20.60;99.90;;;;;;5018484;28;20539;-67
2023/07/04 07:09:48;;;;;;;13.33;5.50;;;20.60;99.90;;;;;;5023221;28;20210;-67
2023/07/04 07:12:14;;;;;;;8.40;5.30;;;20.60;99.90;;;;;;5022166;28;20629;-67
2023/07/04 07:14:40;;;;;;;10.27;4.40;;;20.60;99.90;;;;;;5018323;28;20204;-67
2023/07/04 07:17:06;;;;;;;6.17;4.23;;;20.70;99.90;;;;;;5023479;28;20173;-67
2023/07/04 07:19:32;;;;;;;8.50;4.57;;;20.60;99.90;;;;;;5026448;28;20254;-67
2023/07/04 07:22:01;;;;;;;6.13;4.40;;;20.60;99.90;;;;;;5020396;28;20421;-67
2023/07/04 07:24:30;;;;;;;9.00;4.17;;;20.60;99.90;;;;;;5018244;28;20424;-67
2023/07/04 07:26:56;;;;;;;8.57;4.77;;;20.60;99.90;;;;;;5021517;28;20430;-67
2023/07/04 07:29:22;;;;;;;12.53;4.90;;;20.70;99.90;;;;;;5016962;28;20518;-68
2023/07/04 07:31:50;;;;;;;6.80;4.73;;;20.70;99.90;;;;;;5019338;28;20527;-67
2023/07/04 07:34:18;;;;;;;7.23;4.37;;;20.80;99.90;;;;;;5017426;28;20196;-67
2023/07/04 07:36:46;;;;;;;9.90;4.40;;;20.90;99.90;;;;;;5024288;28;20403;-67
2023/07/04 07:39:14;;;;;;;7.70;4.93;;;21.10;99.90;;;;;;5017042;28;20483;-67
2023/07/04 07:41:46;;;;;;;6.60;4.20;;;21.20;99.90;;;;;;5014210;28;20552;-67
2023/07/04 07:44:13;;;;;;;8.90;5.07;;;21.10;99.90;;;;;;5014521;28;20462;-67
2023/07/04 07:46:39;;;;;;;7.37;4.37;;;21.10;99.90;;;;;;5021723;28;20434;-67
2023/07/04 07:49:06;;;;;;;6.90;5.00;;;21.20;99.90;;;;;;5017920;28;20450;-67
2023/07/04 07:51:32;;;;;;;10.20;4.80;;;21.40;99.90;;;;;;5020414;28;20941;-67
2023/07/04 07:53:59;;;;;;;8.43;5.27;;;21.50;99.90;;;;;;5022744;28;20466;-67
2023/07/04 07:56:30;;;;;;;9.27;4.23;;;21.70;99.90;;;;;;5023908;28;20190;-67
2023/07/04 07:58:56;;;;;;;9.83;5.07;;;21.70;99.90;;;;;;5019358;28;20442;-67
2023/07/04 08:01:29;;;;;;;9.17;4.97;;;21.70;99.90;;;;;;5014190;28;20435;-67
2023/07/04 08:03:55;;;;;;;6.80;4.57;;;21.60;99.90;;;;;;5024143;28;20185;-67
2023/07/04 08:06:21;;;;;;;9.63;4.93;;;21.70;99.90;;;;;;5019522;28;20501;-67
2023/07/04 08:08:46;;;;;;;10.13;4.93;;;21.80;99.90;;;;;;5013732;28;20539;-67
2023/07/04 08:11:13;;;;;;;7.83;5.30;;;21.70;99.90;;;;;;5013890;28;20185;-67
2023/07/04 08:13:39;;;;;;;12.23;6.00;;;21.80;99.90;;;;;;5024735;28;20551;-67
2023/07/04 08:16:05;;;;;;;11.77;5.67;;;21.80;99.90;;;;;;5024359;28;20451;-67
2023/07/04 08:18:30;;;;;;;6.33;4.40;;;21.90;99.90;;;;;;5027950;28;20204;-67
2023/07/04 08:20:57;;;;;;;9.60;5.17;;;22.00;99.90;;;;;;5026336;28;20180;-67
2023/07/04 08:23:23;;;;;;;9.37;5.07;;;22.00;99.90;;;;;;5013823;28;20662;-67
2023/07/04 08:25:49;;;;;;;8.90;4.60;;;22.10;99.90;;;;;;5023659;28;20419;-67
2023/07/04 08:28:15;;;;;;;10.07;5.53;;;21.90;99.90;;;;;;5022377;28;20211;-67
2023/07/04 08:30:41;;;;;;;9.60;5.83;;;21.80;99.90;;;;;;5021113;28;20267;-67
2023/07/04 08:33:07;;;;;;;14.40;7.43;;;21.90;99.90;;;;;;5026007;28;20549;-67
2023/07/04 08:35:32;;;;;;;13.87;4.93;;;21.90;99.90;;;;;;5027218;28;20242;-67
2023/07/04 08:37:58;;;;;;;13.67;5.00;;;21.90;99.90;;;;;;5024364;28;20258;-67
2023/07/04 08:40:24;;;;;;;11.20;5.40;;;22.00;99.90;;;;;;5026050;28;20173;-67
2023/07/04 08:42:49;;;;;;;11.30;5.90;;;22.00;99.90;;;;;;5024516;28;20974;-67
2023/07/04 08:45:26;;;;;;;7.13;5.10;;;22.00;99.90;;;;;;5028045;28;20650;-67
2023/07/04 08:47:54;;;;;;;12.33;5.90;;;22.20;99.90;;;;;;5021515;28;20185;-67
2023/07/04 08:50:30;;;;;;;9.57;5.27;;;22.20;99.90;;;;;;5020700;28;20423;-67
2023/07/04 08:53:10;;;;;;;13.73;5.37;;;22.10;99.90;;;;;;5028427;28;21375;-67
2023/07/04 08:55:49;;;;;;;11.87;5.27;;;22.10;99.90;;;;;;5024362;28;20562;-67
2023/07/04 08:58:17;;;;;;;10.47;6.13;;;22.20;99.90;;;;;;5021874;28;20949;-67
2023/07/04 09:00:44;;;;;;;9.00;5.73;;;22.30;99.90;;;;;;5016373;28;20425;-67
2023/07/04 09:03:19;;;;;;;9.57;5.60;;;22.30;99.90;;;;;;5026887;28;20796;-67
2023/07/04 09:05:44;;;;;;;18.50;6.50;;;22.30;99.90;;;;;;5025057;28;20430;-67
2023/07/04 09:08:56;;;;;;;13.27;6.03;;;22.40;99.90;;;;;;5021802;28;20454;-67
2023/07/04 09:11:23;;;;;;;10.00;5.87;;;22.50;99.90;;;;;;4959449;28;20198;-67
2023/07/04 09:13:55;;;;;;;10.77;5.30;;;22.70;99.90;;;;;;4960333;28;20821;-67
2023/07/04 09:16:39;;;;;;;11.73;5.80;;;22.80;99.90;;;;;;4992423;28;20451;-67
2023/07/04 09:19:07;;;;;;;10.17;5.83;;;22.80;99.90;;;;;;5020779;28;20975;-66
2023/07/04 09:21:38;;;;;;;10.53;5.63;;;22.80;99.90;;;;;;5022845;28;20879;-67
2023/07/04 09:24:04;;;;;;;12.20;6.50;;;22.90;99.90;;;;;;5024628;28;20415;-67
2023/07/04 09:26:46;;;;;;;9.23;5.60;;;23.00;99.90;;;;;;5021347;28;20439;-67
2023/07/04 09:29:15;;;;;;;10.60;5.97;;;23.10;99.90;;;;;;5023722;28;21018;-67
2023/07/04 09:31:43;;;;;;;18.97;6.30;;;23.20;99.90;;;;;;5016530;28;20436;-66
2023/07/04 09:34:21;;;;;;;14.10;6.73;;;23.30;99.90;;;;;;5018066;28;20477;-67
2023/07/04 09:36:47;;;;;;;13.03;6.60;;;23.40;99.90;;;;;;5019392;28;20434;-67
2023/07/04 09:39:13;;;;;;;10.97;6.40;;;23.40;99.90;;;;;;5020000;28;20446;-67
2023/07/04 09:41:40;;;;;;;10.57;5.70;;;23.40;99.90;;;;;;5024178;28;20545;-66
2023/07/04 09:44:19;;;;;;;11.00;6.10;;;23.50;99.90;;;;;;5021368;28;20184;-67
2023/07/04 09:46:50;;;;;;;9.70;5.37;;;23.40;99.90;;;;;;5021094;28;20426;-67
2023/07/04 09:49:26;;;;;;;12.13;5.90;;;23.40;99.50;;;;;;5019339;28;20470;-67
2023/07/04 09:52:10;;;;;;;10.23;6.77;;;23.40;99.90;;;;;;5022256;28;20526;-66
2023/07/04 09:54:44;;;;;;;9.70;6.90;;;23.50;99.90;;;;;;5020052;28;20456;-67
2023/07/04 09:57:22;;;;;;;10.00;6.00;;;23.70;99.90;;;;;;5023758;28;21342;-67
2023/07/04 09:59:49;;;;;;;13.23;6.00;;;23.80;99.90;;;;;;5020107;28;20467;-67
2023/07/04 10:02:18;;;;;;;13.83;6.53;;;23.90;99.90;;;;;;5016765;28;20431;-67
2023/07/04 10:04:46;;;;;;;11.40;6.43;;;23.90;99.90;;;;;;5020302;28;20458;-67
2023/07/04 10:07:14;;;;;;;9.40;5.90;;;24.20;99.70;;;;;;5020949;28;20941;-67
2023/07/04 10:09:57;;;;;;;9.60;6.50;;;24.20;97.40;;;;;;5023745;28;20462;-67
2023/07/04 10:12:24;;;;;;;10.23;5.80;;;24.20;94.90;;;;;;5017805;28;20706;-67
2023/07/04 10:14:56;;;;;;;10.13;5.63;;;24.20;95.60;;;;;;5017992;28;20483;-67
2023/07/04 10:17:27;;;;;;;9.97;6.33;;;24.30;95.10;;;;;;5020160;28;20430;-67
2023/07/04 10:19:56;;;;;;;10.40;7.50;;;24.50;95.60;;;;;;5019751;28;20432;-66
2023/07/04 10:22:26;;;;;;;8.00;6.27;;;24.50;95.20;;;;;;5025021;28;20424;-67
2023/07/04 10:24:52;;;;;;;11.13;6.20;;;24.50;94.50;;;;;;5020376;28;20525;-67
2023/07/04 10:27:19;;;;;;;10.87;6.57;;;24.50;92.70;;;;;;5016889;28;20878;-67
2023/07/04 10:29:58;;;;;;;7.73;6.07;;;24.50;90.80;;;;;;5025224;28;20212;-67
2023/07/04 10:32:24;;;;;;;7.90;6.33;;;24.50;91.10;;;;;;5016182;28;20445;-67
2023/07/04 10:34:50;;;;;;;6.30;5.13;;;24.50;88.50;;;;;;5021034;28;20931;-67
2023/07/04 10:37:29;;;;;;;7.77;6.37;;;24.70;87.90;;;;;;5014024;28;20988;-67
2023/07/04 10:39:59;;;;;;;8.80;6.50;;;24.70;85.90;;;;;;5022586;28;20239;-67
2023/07/04 10:42:43;;;;;;;8.57;5.80;;;24.80;84.60;;;;;;5024522;28;20427;-67
2023/07/04 10:45:14;;;;;;;10.60;7.17;;;24.80;85.30;;;;;;5013961;28;20440;-67
2023/07/04 10:47:42;;;;;;;7.70;5.47;;;24.70;83.40;;;;;;5021212;28;20439;-67
2023/07/04 10:50:14;;;;;;;8.10;6.00;;;24.70;84.30;;;;;;5019715;28;20521;-67
2023/07/04 10:52:43;;;;;;;8.30;5.80;;;24.70;84.70;;;;;;5016905;28;20573;-67
2023/07/04 10:55:15;;;;;;;11.13;5.87;;;24.80;85.60;;;;;;5023273;28;20430;-67
2023/07/04 10:57:46;;;;;;;8.83;6.03;;;24.90;85.50;;;;;;5016346;28;20538;-67
2023/07/04 11:00:40;;;;;;;8.37;5.50;;;24.90;85.90;;;;;;5019481;28;20836;-67
2023/07/04 11:03:20;;;;;;;12.20;7.33;;;24.90;84.20;;;;;;5036189;28;20439;-67
2023/07/04 11:05:49;;;;;;;9.27;5.70;;;25.00;84.60;;;;;;5016957;28;20518;-67
2023/07/04 11:08:18;;;;;;;10.20;6.23;;;25.00;83.00;;;;;;5018289;28;20463;-67
2023/07/04 11:10:49;;;;;;;9.43;5.80;;;24.90;82.30;;;;;;5016632;28;20423;-67
2023/07/04 11:13:17;;;;;;;9.93;5.80;;;24.90;83.80;;;;;;5022060;28;20550;-67
2023/07/04 11:15:46;;;;;;;8.80;5.70;;;25.00;83.10;;;;;;5015399;28;20559;-67
2023/07/04 11:18:16;;;;;;;10.03;5.63;;;25.20;81.80;;;;;;5018590;28;20450;-67
2023/07/04 11:21:15;;;;;;;7.30;5.73;;;25.30;81.30;;;;;;5021629;28;20419;-67
2023/07/04 11:24:14;;;;;;;9.97;6.30;;;25.30;81.30;;;;;;4968547;28;20502;-67
2023/07/04 11:26:49;;;;;;;7.93;6.13;;;25.30;81.00;;;;;;5027951;28;20463;-67
2023/07/04 11:29:23;;;;;;;9.13;5.93;;;25.30;80.70;;;;;;5016398;28;20443;-67
2023/07/04 11:32:02;;;;;;;7.27;5.80;;;25.50;80.00;;;;;;5013742;28;20435;-67
2023/07/04 11:34:46;;;;;;;7.57;5.90;;;25.70;79.50;;;;;;5019856;28;21076;-67
2023/07/04 11:37:21;;;;;;;6.50;5.87;;;25.90;78.50;;;;;;5019893;28;20427;-67
2023/07/04 11:39:51;;;;;;;7.10;6.07;;;25.90;77.90;;;;;;5022707;28;20875;-67
2023/07/04 11:42:26;;;;;;;9.17;5.70;;;26.00;79.60;;;;;;5019124;28;20435;-67
2023/07/04 11:44:52;;;;;;;8.20;5.97;;;26.10;78.10;;;;;;5022024;28;20454;-67
2023/07/04 11:47:31;;;;;;;6.70;6.00;;;26.20;78.00;;;;;;5024958;28;20471;-67
2023/07/04 11:49:57;;;;;;;9.83;6.23;;;26.40;76.80;;;;;;5026114;28;20196;-67
2023/07/04 11:52:25;;;;;;;7.13;6.00;;;26.60;75.40;;;;;;5022072;28;20442;-67
2023/07/04 11:55:14;;;;;;;7.50;5.63;;;26.80;75.30;;;;;;5024090;28;20469;-67
2023/07/04 11:58:09;;;;;;;9.40;6.47;;;26.70;75.60;;;;;;5020199;28;20523;-67
2023/07/04 12:00:40;;;;;;;7.77;5.93;;;26.90;74.00;;;;;;5005456;28;20451;-67
2023/07/04 12:03:18;;;;;;;7.07;5.47;;;27.00;74.30;;;;;;5017206;28;20434;-67
2023/07/04 12:05:50;;;;;;;10.60;5.70;;;27.20;71.10;;;;;;5020340;28;20438;-67
2023/07/04 12:08:31;;;;;;;7.80;6.53;;;27.50;72.30;;;;;;5028795;28;20489;-68
2023/07/04 12:11:04;;;;;;;6.67;5.50;;;28.20;70.40;;;;;;5021398;28;20425;-67
2023/07/04 12:13:34;;;;;;;8.90;5.30;;;29.40;66.50;;;;;;5018139;28;20543;-68
2023/07/04 12:16:00;;;;;;;7.10;5.90;;;30.10;64.90;;;;;;5017545;28;20862;-68
2023/07/04 12:18:28;;;;;;;8.17;6.17;;;30.40;62.70;;;;;;5023294;28;20427;-67
2023/07/04 12:20:56;;;;;;;7.13;6.20;;;29.80;59.90;;;;;;5021552;28;20486;-67
2023/07/04 12:23:21;;;;;;;7.83;5.77;;;29.10;60.50;;;;;;5016059;28;20980;-67
2023/07/04 12:25:49;;;;;;;6.93;6.13;;;29.50;62.20;;;;;;5020072;28;20411;-67
2023/07/04 12:28:17;;;;;;;8.37;6.17;;;29.90;61.40;;;;;;5020342;28;20303;-67
2023/07/04 12:30:58;;;;;;;10.30;7.50;;;29.50;59.90;;;;;;5019919;28;20436;-67
2023/07/04 12:33:36;;;;;;;9.07;5.83;;;29.50;59.90;;;;;;5019306;28;20470;-67
2023/07/04 12:36:09;;;;;;;8.43;5.90;;;29.20;59.40;;;;;;5025556;28;20502;-67
2023/07/04 12:38:42;;;;;;;6.77;5.27;;;29.00;59.90;;;;;;5019308;28;20504;-67
2023/07/04 12:41:07;;;;;;;8.00;5.70;;;29.00;59.90;;;;;;5020149;28;20925;-67
2023/07/04 12:43:33;;;;;;;11.13;6.60;;;28.80;60.60;;;;;;5018446;28;20484;-67
2023/07/04 12:46:18;;;;;;;6.97;5.60;;;28.70;60.00;;;;;;5021582;28;20184;-67
2023/07/04 12:48:46;;;;;;;9.20;5.90;;;28.80;60.80;;;;;;5027417;28;20188;-67
2023/07/04 12:51:16;;;;;;;7.20;5.40;;;29.00;59.90;;;;;;5019053;28;20953;-67
2023/07/04 12:53:43;;;;;;;10.33;6.70;;;29.10;60.50;;;;;;5023590;28;20505;-67
2023/07/04 12:56:10;;;;;;;9.17;5.87;;;28.80;58.60;;;;;;5022955;28;20494;-67